アデレード の空港の天気 - METARとTAF

アデレード空港 ( YPAD / ADL ) - オーストラリア 南オーストラリア州アデレード
飛行場実況気象(Metar)
観測時間02/18 09:30 ACDT (02/17 23:00 UTC)
風向・風速南 6m/s
視程10km以上
天気現象
少しの雲 雲底高度 610m
全天の8割程度の雲 雲底高度 4270m
気温20℃
湿度64%
気圧1010hPa
METARYPAD 172300Z 17011KT 9999 FEW020 BKN140 20/13 Q1010 NOSIG
過去の天気等 Google飛行場航空写真 Wunderground天気予報

過去48時間のMETAR

飛行場予報(TAF)
発表時間: 2/18 03:04 ACDT (2/17 16:34 UTC)
予報対象時間: 18日4時 ACDT ~ 19日10時 ACDT
風向・風速南 6m/s
視程10km以上
天気現象弱いしゅう雨
少しの雲 雲底高度 300m
18日9時 ACDT から
風向・風速南 6m/s
視程10km以上
天気現象運行に影響にある天気現象が終了
全天の8割程度の雲 雲底高度 760m
18日12時 ACDT から
風向・風速南西 9m/s
視程10km以上
少しの雲 雲底高度 910m
18日20時 ACDT から
風向・風速南 6m/s
視程10km以上
少しの雲 雲底高度 760m
TAF YPAD 171634Z 1718/1824 18012KT 9999 -SHRA FEW010
FM172300 18012KT 9999 NSW BKN025
FM180200 22018KT 9999 FEW030
FM181000 19012KT 9999 FEW025